createdAt,value
2023-01-18T00:02:17.265Z,20.50
2023-01-18T00:04:44.521Z,20.23
2023-01-18T00:07:13.237Z,19.50
2023-01-18T00:09:46.316Z,21.13
2023-01-18T00:12:13.804Z,20.52
2023-01-18T00:14:42.404Z,20.00
2023-01-18T00:17:19.624Z,18.50
2023-01-18T00:22:33.656Z,21.88
2023-01-18T00:25:00.810Z,19.88
2023-01-18T00:27:48.554Z,20.35
2023-01-18T00:30:26.235Z,18.42
2023-01-18T00:32:57.062Z,18.38
2023-01-18T00:35:24.784Z,17.70
2023-01-18T00:37:53.999Z,15.82
2023-01-18T00:40:24.087Z,15.95
2023-01-18T00:43:10.247Z,16.05
2023-01-18T00:45:37.755Z,16.92
2023-01-18T00:48:08.302Z,16.73
2023-01-18T00:50:37.179Z,17.10
2023-01-18T00:53:04.426Z,17.40
2023-01-18T00:58:20.173Z,19.02
2023-01-18T01:00:49.364Z,18.70
2023-01-18T01:06:34.613Z,19.75
2023-01-18T01:09:01.647Z,19.65
2023-01-18T01:11:28.960Z,19.33
2023-01-18T01:14:14.640Z,19.90
2023-01-18T01:17:02.614Z,18.80
2023-01-18T01:19:48.537Z,19.15
2023-01-18T01:22:34.708Z,21.02
2023-01-18T01:25:20.402Z,18.95
2023-01-18T01:30:25.112Z,19.83
2023-01-18T01:32:52.454Z,20.83
2023-01-18T01:35:19.411Z,20.73
2023-01-18T01:37:46.430Z,18.42
2023-01-18T01:40:15.738Z,21.45
2023-01-18T01:42:43.061Z,19.17
2023-01-18T01:45:10.402Z,22.50
2023-01-18T01:47:44.145Z,19.63
2023-01-18T01:50:39.455Z,18.33
2023-01-18T01:53:10.361Z,21.15
2023-01-18T01:55:42.384Z,21.17
2023-01-18T01:58:19.104Z,19.50
2023-01-18T02:00:46.193Z,19.98
2023-01-18T02:03:18.851Z,18.90
2023-01-18T02:05:55.968Z,20.38
2023-01-18T02:08:24.012Z,20.88
2023-01-18T02:10:51.978Z,20.80
2023-01-18T02:13:27.076Z,21.17
2023-01-18T02:16:18.311Z,21.35
2023-01-18T02:19:30.104Z,21.65
2023-01-18T02:25:13.039Z,21.02
2023-01-18T02:30:40.208Z,22.40
2023-01-18T02:33:09.630Z,20.38
2023-01-18T02:35:52.432Z,22.25
2023-01-18T02:38:27.889Z,21.35
2023-01-18T02:41:18.462Z,22.33
2023-01-18T02:49:12.800Z,22.27
2023-01-18T02:54:24.968Z,22.85
2023-01-18T02:56:54.118Z,22.73
2023-01-18T02:59:32.264Z,22.65
2023-01-18T03:02:03.605Z,21.67
2023-01-18T03:04:54.677Z,22.10
2023-01-18T03:07:30.532Z,21.92
2023-01-18T03:10:03.165Z,21.05
2023-01-18T03:12:48.378Z,22.50
2023-01-18T03:15:16.884Z,23.95
2023-01-18T03:17:58.064Z,22.23
2023-01-18T03:20:33.237Z,21.50
2023-01-18T03:23:35.743Z,21.33
2023-01-18T03:26:12.146Z,22.38
2023-01-18T03:29:00.426Z,20.90
2023-01-18T03:31:59.827Z,23.27
2023-01-18T03:34:59.530Z,24.55
2023-01-18T03:48:10.665Z,23.10
2023-01-18T03:50:54.894Z,25.58
2023-01-18T03:53:40.636Z,24.20
2023-01-18T03:56:23.565Z,26.52
2023-01-18T04:09:35.221Z,27.25
2023-01-18T04:12:01.957Z,23.90
2023-01-18T04:14:29.325Z,26.98
2023-01-18T04:16:56.826Z,28.67
2023-01-18T04:19:24.234Z,26.88
2023-01-18T04:21:51.195Z,29.40
2023-01-18T04:24:19.210Z,28.88
2023-01-18T04:27:07.525Z,30.70
2023-01-18T04:29:35.029Z,30.35
2023-01-18T04:32:02.877Z,27.83
2023-01-18T04:34:34.064Z,31.73
2023-01-18T04:37:01.595Z,28.65
2023-01-18T04:39:32.965Z,31.42
2023-01-18T04:41:59.860Z,29.02
2023-01-18T04:44:26.843Z,32.80
2023-01-18T04:46:54.793Z,32.42
2023-01-18T04:49:23.558Z,31.20
2023-01-18T04:51:50.406Z,31.33
2023-01-18T04:54:19.789Z,31.15
2023-01-18T04:56:46.596Z,32.28
2023-01-18T04:59:19.573Z,30.73
2023-01-18T05:01:46.608Z,32.58
2023-01-18T05:04:15.996Z,32.22
2023-01-18T05:06:43.284Z,29.75
2023-01-18T05:09:12.649Z,30.25
2023-01-18T05:11:40.018Z,28.27
2023-01-18T05:14:10.197Z,34.05
2023-01-18T05:16:41.005Z,31.40
2023-01-18T05:19:10.487Z,31.92
2023-01-18T05:21:38.760Z,31.40
2023-01-18T05:24:07.427Z,32.55
2023-01-18T05:26:34.318Z,30.20
2023-01-18T05:29:03.182Z,28.92
2023-01-18T05:31:30.648Z,30.50
2023-01-18T05:33:58.498Z,34.00
2023-01-18T05:36:27.951Z,30.77
2023-01-18T05:38:55.801Z,31.77
2023-01-18T05:41:22.892Z,32.83
2023-01-18T05:46:31.524Z,31.90
2023-01-18T05:49:01.600Z,31.02
2023-01-18T05:51:29.157Z,36.42
2023-01-18T05:53:56.153Z,30.30
2023-01-18T05:56:25.365Z,29.48
2023-01-18T06:01:29.107Z,27.73
2023-01-18T06:04:00.184Z,28.55
2023-01-18T06:06:27.187Z,28.70
2023-01-18T06:08:55.120Z,25.98
2023-01-18T06:11:22.521Z,30.10
2023-01-18T06:13:50.241Z,27.77
2023-01-18T06:16:17.094Z,27.00
2023-01-18T06:21:19.811Z,26.83
2023-01-18T06:23:46.717Z,27.17
2023-01-18T06:26:15.110Z,27.88
2023-01-18T06:28:42.166Z,23.65
2023-01-18T06:31:11.939Z,21.48
2023-01-18T06:33:39.651Z,24.58
2023-01-18T06:38:45.077Z,24.27
2023-01-18T06:41:12.872Z,22.25
2023-01-18T06:43:40.073Z,21.25
2023-01-18T06:46:13.098Z,21.80
2023-01-18T06:48:40.096Z,22.00
2023-01-18T06:51:17.963Z,21.35
2023-01-18T06:56:21.633Z,23.02
2023-01-18T06:58:51.376Z,23.52
2023-01-18T07:03:54.951Z,24.98
2023-01-18T07:06:21.903Z,23.60
2023-01-18T07:08:49.777Z,23.75
2023-01-18T07:11:17.477Z,22.10
2023-01-18T07:13:46.949Z,19.30
2023-01-18T07:16:17.619Z,23.05
2023-01-18T07:18:47.445Z,22.90
2023-01-18T07:21:16.719Z,22.73
2023-01-18T07:23:47.681Z,24.20
2023-01-18T07:26:20.860Z,24.60
2023-01-18T07:28:48.579Z,22.45
2023-01-18T07:31:19.434Z,22.10
2023-01-18T07:36:33.821Z,23.20
2023-01-18T07:44:36.183Z,24.55
2023-01-18T07:47:04.335Z,21.73
2023-01-18T07:49:31.960Z,22.50
2023-01-18T07:52:00.991Z,19.10
2023-01-18T07:54:32.007Z,19.45
2023-01-18T07:56:59.778Z,18.80
2023-01-18T08:02:17.521Z,19.48
2023-01-18T08:04:50.393Z,17.63
2023-01-18T08:10:06.135Z,15.25
2023-01-18T08:12:35.396Z,19.23
2023-01-18T08:15:02.762Z,16.65
2023-01-18T08:17:31.518Z,15.60
2023-01-18T08:20:03.152Z,18.48
2023-01-18T08:22:32.827Z,18.30
2023-01-18T08:25:00.174Z,18.42
2023-01-18T08:27:28.755Z,21.40
2023-01-18T08:29:56.915Z,17.02
2023-01-18T08:37:31.634Z,18.95
2023-01-18T08:42:40.887Z,19.58
2023-01-18T08:50:31.184Z,20.25
2023-01-18T08:53:00.701Z,18.42
2023-01-18T08:55:31.760Z,17.85
2023-01-18T09:03:20.943Z,19.38
2023-01-18T09:11:11.032Z,20.38
2023-01-18T09:14:00.217Z,18.20
2023-01-18T09:16:36.203Z,19.88
2023-01-18T09:27:03.217Z,22.67
2023-01-18T09:32:08.845Z,20.70
2023-01-18T09:34:37.859Z,20.98
2023-01-18T09:37:05.148Z,19.58
2023-01-18T09:39:43.051Z,20.27
2023-01-18T09:42:23.962Z,20.98
2023-01-18T09:44:55.747Z,22.48
2023-01-18T09:58:14.086Z,24.33
2023-01-18T10:09:46.309Z,27.73
2023-01-18T10:23:02.828Z,25.88
2023-01-18T10:31:21.519Z,24.83
2023-01-18T10:36:42.310Z,24.40
2023-01-18T10:44:23.203Z,26.55
2023-01-18T10:49:46.899Z,25.45
2023-01-18T10:52:33.457Z,26.60
2023-01-18T10:55:09.432Z,26.33
2023-01-18T10:57:43.476Z,26.40
2023-01-18T11:00:34.741Z,29.48
2023-01-18T11:03:10.066Z,26.65
2023-01-18T11:05:44.818Z,23.83
2023-01-18T11:08:32.121Z,25.48
2023-01-18T11:11:02.329Z,26.17
2023-01-18T11:13:45.879Z,25.25
2023-01-18T11:16:24.738Z,25.60
2023-01-18T11:19:18.380Z,22.92
2023-01-18T11:21:51.695Z,22.95
2023-01-18T11:24:20.836Z,23.45
2023-01-18T11:26:58.801Z,20.58
2023-01-18T11:29:35.737Z,21.92
2023-01-18T11:32:06.697Z,19.65
2023-01-18T11:34:41.785Z,21.42
2023-01-18T11:37:34.607Z,20.23
2023-01-18T11:40:22.402Z,21.55
2023-01-18T11:42:54.300Z,21.10
2023-01-18T11:45:30.818Z,22.23
2023-01-18T11:50:57.485Z,20.65
2023-01-18T11:53:58.581Z,20.60
2023-01-18T11:56:56.009Z,19.30
2023-01-18T11:59:34.122Z,22.45
2023-01-18T12:02:57.580Z,21.45
2023-01-18T12:05:55.322Z,19.60
2023-01-18T12:08:46.389Z,18.40
2023-01-18T12:11:28.202Z,17.27
2023-01-18T12:14:21.656Z,17.55
2023-01-18T12:17:11.026Z,21.08
2023-01-18T12:19:52.339Z,20.58
2023-01-18T12:22:35.477Z,19.05
2023-01-18T12:25:57.675Z,18.38
2023-01-18T12:28:40.293Z,18.70
2023-01-18T12:31:28.535Z,19.55
2023-01-18T12:34:07.329Z,18.70
2023-01-18T12:36:44.763Z,19.27
2023-01-18T12:39:23.147Z,17.73
2023-01-18T12:41:53.139Z,19.23
2023-01-18T12:44:30.234Z,21.20
2023-01-18T12:47:06.273Z,18.30
2023-01-18T12:49:40.465Z,24.27
2023-01-18T12:52:19.032Z,26.95
2023-01-18T12:55:12.784Z,25.90
2023-01-18T12:57:43.289Z,23.65
2023-01-18T13:00:51.092Z,25.00
2023-01-18T13:03:25.154Z,23.05
2023-01-18T13:06:04.220Z,20.15
2023-01-18T13:08:50.026Z,17.35
2023-01-18T13:11:31.440Z,21.33
2023-01-18T13:14:24.430Z,21.48
2023-01-18T13:17:03.834Z,20.23
2023-01-18T13:20:00.887Z,20.42
2023-01-18T13:23:05.441Z,20.33
2023-01-18T13:25:32.983Z,19.80
2023-01-18T13:28:14.662Z,22.92
2023-01-18T13:30:57.246Z,19.63
2023-01-18T13:33:34.621Z,21.98
2023-01-18T13:36:32.098Z,18.90
2023-01-18T13:39:16.276Z,20.40
2023-01-18T13:42:09.961Z,21.20
2023-01-18T13:44:41.565Z,20.77
2023-01-18T13:47:43.773Z,20.80
2023-01-18T13:50:29.240Z,23.75
2023-01-18T13:53:22.333Z,23.35
2023-01-18T13:56:12.025Z,22.38
2023-01-18T13:58:54.064Z,25.60
2023-01-18T14:01:46.180Z,23.35
2023-01-18T14:04:57.280Z,23.02
2023-01-18T14:07:38.016Z,24.55
2023-01-18T14:10:37.391Z,24.08
2023-01-18T14:13:14.074Z,23.00
2023-01-18T14:15:58.070Z,22.40
2023-01-18T14:18:29.894Z,23.77
2023-01-18T14:21:22.247Z,24.42
2023-01-18T14:27:24.256Z,25.55
2023-01-18T14:30:24.364Z,25.58
2023-01-18T14:36:02.183Z,28.52
2023-01-18T14:38:32.779Z,27.83
2023-01-18T14:41:34.716Z,27.38
2023-01-18T14:44:18.838Z,27.33
2023-01-18T14:50:03.413Z,24.80
2023-01-18T14:52:39.356Z,26.45
2023-01-18T14:55:37.462Z,27.25
2023-01-18T14:58:40.431Z,25.88
2023-01-18T15:01:33.343Z,26.20
2023-01-18T15:04:41.515Z,28.75
2023-01-18T15:07:14.101Z,25.98
2023-01-18T15:09:42.882Z,26.20
2023-01-18T15:12:17.609Z,26.73
2023-01-18T15:14:51.284Z,35.28
2023-01-18T15:17:25.646Z,35.53
2023-01-18T15:20:04.371Z,35.05
2023-01-18T15:22:37.749Z,33.17
2023-01-18T15:25:18.918Z,30.95
2023-01-18T15:28:23.306Z,29.33
2023-01-18T15:30:54.969Z,27.77
2023-01-18T15:33:26.229Z,30.65
2023-01-18T15:36:16.559Z,27.20
2023-01-18T15:38:43.875Z,30.77
2023-01-18T15:41:14.903Z,28.88
2023-01-18T15:43:44.075Z,28.90
2023-01-18T15:46:18.011Z,26.75
2023-01-18T15:48:54.880Z,27.25
2023-01-18T15:51:23.069Z,27.02
2023-01-18T15:53:56.482Z,26.42
2023-01-18T15:56:28.146Z,29.10
2023-01-18T15:58:57.114Z,27.98
2023-01-18T16:01:29.566Z,26.13
2023-01-18T16:04:22.522Z,27.20
2023-01-18T16:06:53.376Z,28.05
2023-01-18T16:09:22.554Z,22.50
2023-01-18T16:11:57.741Z,27.23
2023-01-18T16:14:40.313Z,26.65
2023-01-18T16:17:20.478Z,27.25
2023-01-18T16:20:00.005Z,29.13
2023-01-18T16:22:35.431Z,26.55
2023-01-18T16:25:19.856Z,24.88
2023-01-18T16:28:00.624Z,26.30
2023-01-18T16:30:38.968Z,24.33
2023-01-18T16:33:19.379Z,26.95
2023-01-18T16:35:49.441Z,27.17
2023-01-18T16:38:22.896Z,25.65
2023-01-18T16:40:51.206Z,27.52
2023-01-18T16:43:20.747Z,30.88
2023-01-18T16:45:51.794Z,28.40
2023-01-18T16:48:21.796Z,31.55
2023-01-18T16:50:50.423Z,27.02
2023-01-18T16:53:18.623Z,33.85
2023-01-18T16:55:48.690Z,32.67
2023-01-18T16:58:18.547Z,34.85
2023-01-18T17:01:00.305Z,34.70
2023-01-18T17:03:28.428Z,32.10
2023-01-18T17:05:55.756Z,33.58
2023-01-18T17:08:23.553Z,34.25
2023-01-18T17:10:52.465Z,34.63
2023-01-18T17:13:19.984Z,34.83
2023-01-18T17:15:48.107Z,35.92
2023-01-18T17:21:06.930Z,35.30
2023-01-18T17:23:33.791Z,36.20
2023-01-18T17:26:00.834Z,35.53
2023-01-18T17:28:29.105Z,37.83
2023-01-18T17:30:56.079Z,37.35
2023-01-18T17:33:28.728Z,40.03
2023-01-18T17:35:56.556Z,36.55
2023-01-18T17:38:28.786Z,40.83
2023-01-18T17:40:59.075Z,36.28
2023-01-18T17:43:34.647Z,41.63
2023-01-18T17:46:07.408Z,34.25
2023-01-18T17:48:39.690Z,36.42
2023-01-18T17:51:09.596Z,33.53
2023-01-18T17:53:38.076Z,33.72
2023-01-18T17:56:13.266Z,35.42
2023-01-18T17:58:40.888Z,32.10
2023-01-18T18:01:13.477Z,35.75
2023-01-18T18:03:45.511Z,30.65
2023-01-18T18:06:19.003Z,35.05
2023-01-18T18:08:55.121Z,31.38
2023-01-18T18:11:28.485Z,29.60
2023-01-18T18:13:59.919Z,29.88
2023-01-18T18:16:31.603Z,33.65
2023-01-18T18:19:00.645Z,32.35
2023-01-18T18:21:27.621Z,32.05
2023-01-18T18:23:55.146Z,33.88
2023-01-18T18:26:24.907Z,37.63
2023-01-18T18:28:52.340Z,31.73
2023-01-18T18:31:23.977Z,35.53
2023-01-18T18:33:54.316Z,34.53
2023-01-18T18:36:27.207Z,34.17
2023-01-18T18:39:22.812Z,40.35
2023-01-18T18:41:51.199Z,33.80
2023-01-18T18:44:20.866Z,37.10
2023-01-18T18:46:48.304Z,35.90
2023-01-18T18:49:15.721Z,37.17
2023-01-18T18:51:43.647Z,42.40
2023-01-18T18:54:11.554Z,36.28
2023-01-18T18:56:41.788Z,39.17
2023-01-18T18:59:09.139Z,34.85
2023-01-18T19:01:36.251Z,38.72
2023-01-18T19:04:04.663Z,41.17
2023-01-18T19:06:32.189Z,43.05
2023-01-18T19:08:59.930Z,42.88
2023-01-18T19:11:27.337Z,42.92
2023-01-18T19:13:55.966Z,41.40
2023-01-18T19:16:24.120Z,42.55
2023-01-18T19:18:52.120Z,106.00
2023-01-18T19:21:20.422Z,44.55
2023-01-18T19:23:47.961Z,54.15
2023-01-18T19:26:18.528Z,45.35
2023-01-18T19:28:47.261Z,44.85
2023-01-18T19:31:15.298Z,43.78
2023-01-18T19:33:43.223Z,50.55
2023-01-18T19:36:14.713Z,43.05
2023-01-18T19:38:48.151Z,42.05
2023-01-18T19:41:20.592Z,36.22
2023-01-18T19:44:07.599Z,40.33
2023-01-18T19:46:39.336Z,39.72
2023-01-18T19:49:07.814Z,37.50
2023-01-18T19:51:38.986Z,39.22
2023-01-18T19:54:06.843Z,38.90
2023-01-18T19:56:34.228Z,38.03
2023-01-18T19:59:04.626Z,37.28
2023-01-18T20:01:37.153Z,36.53
2023-01-18T20:04:09.893Z,40.10
2023-01-18T20:06:38.893Z,44.40
2023-01-18T20:09:19.139Z,42.70
2023-01-18T20:11:48.145Z,42.42
2023-01-18T20:14:24.343Z,42.25
2023-01-18T20:16:56.717Z,42.22
2023-01-18T20:19:23.565Z,47.40
2023-01-18T20:21:51.388Z,43.42
2023-01-18T20:24:18.346Z,40.53
2023-01-18T20:26:46.108Z,40.22
2023-01-18T20:29:15.795Z,37.50
2023-01-18T20:31:49.710Z,40.30
2023-01-18T20:34:17.028Z,39.92
2023-01-18T20:36:47.623Z,38.83
2023-01-18T20:39:15.303Z,43.47
2023-01-18T20:41:42.299Z,38.60
2023-01-18T20:44:10.061Z,39.42
2023-01-18T20:46:40.189Z,40.63
2023-01-18T20:49:07.529Z,39.78
2023-01-18T20:51:34.549Z,39.85
2023-01-18T20:54:01.869Z,41.97
2023-01-18T20:56:31.421Z,36.30
2023-01-18T20:58:59.008Z,36.75
2023-01-18T21:01:32.429Z,39.88
2023-01-18T21:04:01.191Z,38.28
2023-01-18T21:06:29.252Z,44.15
2023-01-18T21:08:57.750Z,41.58
2023-01-18T21:11:31.276Z,43.83
2023-01-18T21:13:59.367Z,42.47
2023-01-18T21:16:27.983Z,45.17
2023-01-18T21:18:59.720Z,42.40
2023-01-18T21:21:28.068Z,38.03
2023-01-18T21:23:57.891Z,37.88
2023-01-18T21:26:25.333Z,36.30
2023-01-18T21:28:53.243Z,37.35
2023-01-18T21:31:21.211Z,37.83
2023-01-18T21:33:51.315Z,35.42
2023-01-18T21:36:19.136Z,32.58
2023-01-18T21:38:49.375Z,35.33
2023-01-18T21:41:36.100Z,35.33
2023-01-18T21:44:22.680Z,36.05
2023-01-18T21:46:53.296Z,34.10
2023-01-18T21:50:11.296Z,30.63
2023-01-18T21:52:48.685Z,37.65
2023-01-18T21:55:16.937Z,34.45
2023-01-18T21:57:44.721Z,35.85
2023-01-18T22:00:12.378Z,33.22
2023-01-18T22:02:40.284Z,32.40
2023-01-18T22:05:09.918Z,33.28
2023-01-18T22:07:37.727Z,34.40
2023-01-18T22:10:07.227Z,33.17
2023-01-18T22:12:36.417Z,34.17
2023-01-18T22:15:05.493Z,33.20
2023-01-18T22:17:33.035Z,31.35
2023-01-18T22:20:02.252Z,32.00
2023-01-18T22:22:29.277Z,39.20
2023-01-18T22:25:00.524Z,35.28
2023-01-18T22:27:29.665Z,32.45
2023-01-18T22:29:56.443Z,34.15
2023-01-18T22:32:23.400Z,36.00
2023-01-18T22:34:50.867Z,36.08
2023-01-18T22:37:17.663Z,37.13
2023-01-18T22:39:46.401Z,36.38
2023-01-18T22:42:13.621Z,35.58
2023-01-18T22:44:40.352Z,36.55
2023-01-18T22:47:07.876Z,37.22
2023-01-18T22:49:35.187Z,37.72
2023-01-18T22:52:02.089Z,39.13
2023-01-18T22:54:30.780Z,32.78
2023-01-18T22:56:57.679Z,36.83
2023-01-18T22:59:26.604Z,37.13
2023-01-18T23:01:54.513Z,34.10
2023-01-18T23:04:24.798Z,35.20
2023-01-18T23:06:55.052Z,36.03
2023-01-18T23:09:21.895Z,39.47
2023-01-18T23:11:49.126Z,36.03
2023-01-18T23:17:35.890Z,37.28
2023-01-18T23:20:03.036Z,40.53
2023-01-18T23:22:33.060Z,38.55
2023-01-18T23:25:04.654Z,40.55
2023-01-18T23:27:34.296Z,37.53
2023-01-18T23:30:01.511Z,37.40
2023-01-18T23:32:30.624Z,40.83
2023-01-18T23:34:58.403Z,37.90
2023-01-18T23:37:26.153Z,37.42
2023-01-18T23:40:12.048Z,37.90
2023-01-18T23:42:57.648Z,37.65
2023-01-18T23:45:44.653Z,39.13
2023-01-18T23:48:36.967Z,36.05
2023-01-18T23:51:23.318Z,33.55
2023-01-18T23:54:08.902Z,32.95
2023-01-18T23:56:35.978Z,36.28
2023-01-18T23:59:03.938Z,34.25
